Terminal Aerodrome Forecast
Issued by NWS

Home | Current Version | Previous Version | Graphics & Text | Print | Product List | Glossary Off
Versions: 1 2 3 4 5 6 7 8 9 10 11 12 13 14

000
FTUS43 KMPX 212300
TAFRNH
TAF
KRNH 212325Z 2200/2224 34007KT P6SM FEW040
     FM220200 VRB03KT P6SM SKC
     FM221000 VRB03KT 4SM BR SKC
     FM221300 25003KT P6SM SKC
     FM221700 26006KT P6SM SKC=

USA.gov is the U.S. government's official web portal to all federal, state and local government web resources and services.